Time;durP1;ratioP1;P1;durP2;ratioP2;P2;SDS_P1;SDS_P2;PMS_P1;PMS_P2;Temp;Humidity;BMP_temperature;BMP_pressure;BME280_temperature;BME280_humidity;BME280_pressure;Samples;Min_cycle;Max_cycle;Signal;HPM_P1;HPM_P2
2023/03/19 00:01:57;;;;;;;67.97;49.05;;;;;;;7.45;100.00;101111.00;5037250;28;20262;-46
2023/03/19 00:04:24;;;;;;;73.78;50.38;;;;;;;7.38;100.00;101114.72;5004756;28;20637;-47
2023/03/19 00:06:50;;;;;;;63.55;47.45;;;;;;;7.41;100.00;101109.31;5026988;28;20642;-46
2023/03/19 00:09:16;;;;;;;67.95;50.13;;;;;;;7.47;100.00;101116.31;5032358;28;20172;-47
2023/03/19 00:11:42;;;;;;;74.85;51.45;;;;;;;7.53;100.00;101109.06;5037466;28;20612;-47
2023/03/19 00:14:07;;;;;;;69.93;51.25;;;;;;;7.60;100.00;101116.00;5036785;28;20336;-48
2023/03/19 00:16:33;;;;;;;74.20;50.67;;;;;;;7.58;100.00;101115.16;5030369;28;20584;-46
2023/03/19 00:18:59;;;;;;;66.75;47.90;;;;;;;7.63;100.00;101118.63;5027484;28;20172;-48
2023/03/19 00:21:25;;;;;;;74.63;52.10;;;;;;;7.60;100.00;101113.34;5033889;28;20211;-46
2023/03/19 00:23:51;;;;;;;73.15;50.60;;;;;;;7.64;100.00;101111.50;5015499;28;20303;-47
2023/03/19 00:26:16;;;;;;;73.35;49.78;;;;;;;7.72;100.00;101111.31;5028227;28;20285;-46
2023/03/19 00:28:42;;;;;;;70.15;49.38;;;;;;;7.75;100.00;101117.47;5039532;28;20180;-47
2023/03/19 00:31:14;;;;;;;73.60;49.45;;;;;;;7.72;100.00;101114.88;5026259;28;20211;-46
2023/03/19 00:33:40;;;;;;;61.33;45.75;;;;;;;7.72;100.00;101116.66;5015686;28;20307;-46
2023/03/19 00:36:06;;;;;;;69.63;49.45;;;;;;;7.53;100.00;101114.38;5024005;28;20190;-47
2023/03/19 00:38:33;;;;;;;67.53;47.88;;;;;;;7.57;100.00;101109.88;5027526;28;20175;-47
2023/03/19 00:41:04;;;;;;;66.65;47.60;;;;;;;7.56;100.00;101116.97;5032169;28;20312;-47
2023/03/19 00:43:29;;;;;;;65.53;46.08;;;;;;;7.63;100.00;101117.72;5008025;28;20180;-49
2023/03/19 00:45:55;;;;;;;67.53;49.10;;;;;;;7.53;100.00;101111.72;5034267;28;20677;-47
2023/03/19 00:48:20;;;;;;;65.82;47.35;;;;;;;7.66;100.00;101114.13;5037072;28;20250;-46
2023/03/19 00:50:47;;;;;;;66.85;47.40;;;;;;;7.67;100.00;101119.41;5025608;28;20174;-47
2023/03/19 00:53:13;;;;;;;64.40;46.50;;;;;;;7.72;100.00;101124.66;5022552;28;20183;-47
2023/03/19 00:55:39;;;;;;;63.58;45.30;;;;;;;7.75;100.00;101120.13;5030792;28;20682;-47
2023/03/19 00:58:05;;;;;;;66.78;46.22;;;;;;;7.74;100.00;101121.06;5038987;28;20538;-46
2023/03/19 01:00:32;;;;;;;67.00;46.70;;;;;;;7.74;100.00;101129.06;5011015;28;20643;-47
2023/03/19 01:02:59;;;;;;;68.05;47.92;;;;;;;7.79;100.00;101121.84;5012257;28;20176;-47
2023/03/19 01:05:25;;;;;;;67.25;47.25;;;;;;;7.89;100.00;101126.97;5026348;28;20218;-46
2023/03/19 01:07:50;;;;;;;59.65;44.35;;;;;;;7.89;100.00;101116.28;5035257;28;20247;-47
2023/03/19 01:10:17;;;;;;;65.60;45.55;;;;;;;7.90;100.00;101128.72;5025391;28;20172;-46
2023/03/19 01:12:43;;;;;;;61.83;44.55;;;;;;;7.91;100.00;101133.13;5022742;28;20193;-47
2023/03/19 01:15:09;;;;;;;63.05;45.90;;;;;;;7.91;100.00;101133.13;5034065;28;20198;-46
2023/03/19 01:17:34;;;;;;;62.90;44.65;;;;;;;7.94;100.00;101122.41;5037907;28;20196;-48
2023/03/19 01:20:00;;;;;;;63.15;46.42;;;;;;;7.98;100.00;101116.06;5008553;28;20204;-44
2023/03/19 01:22:26;;;;;;;64.05;45.85;;;;;;;8.00;100.00;101114.25;5028162;28;20180;-46
2023/03/19 01:24:55;;;;;;;64.18;45.42;;;;;;;8.00;100.00;101109.81;5009051;28;20707;-46
2023/03/19 01:27:21;;;;;;;65.45;46.83;;;;;;;8.02;100.00;101110.66;5019935;28;20246;-46
2023/03/19 01:29:47;;;;;;;63.10;45.45;;;;;;;8.04;100.00;101108.81;5026869;28;20180;-46
2023/03/19 01:32:19;;;;;;;62.58;46.40;;;;;;;8.04;100.00;101107.94;5005663;28;20666;-47
2023/03/19 01:35:08;;;;;;;59.53;44.60;;;;;;;8.04;100.00;101105.25;5035694;28;20196;-45
2023/03/19 01:37:35;;;;;;;63.15;45.55;;;;;;;8.01;100.00;101103.53;5027997;28;20179;-45
2023/03/19 01:40:00;;;;;;;62.45;44.70;;;;;;;7.98;100.00;101092.06;5011436;28;20218;-47
2023/03/19 01:42:26;;;;;;;66.20;45.00;;;;;;;7.92;100.00;101103.75;5035282;28;20646;-46
2023/03/19 01:45:38;;;;;;;61.35;43.53;;;;;;;7.82;100.00;101103.06;5021024;28;20268;-46
2023/03/19 01:48:45;;;;;;;65.68;43.88;;;;;;;7.79;100.00;101107.63;5012826;28;20746;-46
2023/03/19 01:51:16;;;;;;;60.67;44.15;;;;;;;7.77;100.00;101099.66;5008456;28;20187;-48
2023/03/19 01:54:04;;;;;;;63.15;44.15;;;;;;;7.69;100.00;101098.94;5037976;28;20226;-46
2023/03/19 01:56:36;;;;;;;59.10;42.30;;;;;;;7.69;100.00;101098.94;5031372;28;20184;-47
2023/03/19 01:59:27;;;;;;;57.80;41.97;;;;;;;7.58;100.00;101093.84;5015184;28;20239;-46
2023/03/19 02:02:33;;;;;;;54.60;39.45;;;;;;;7.62;100.00;101100.00;4982602;28;20201;-46
2023/03/19 02:05:24;;;;;;;56.63;40.92;;;;;;;7.52;100.00;101109.97;5008530;28;20762;-46
2023/03/19 02:07:53;;;;;;;63.67;45.42;;;;;;;7.60;100.00;101108.00;4995330;28;20311;-45
2023/03/19 02:10:21;;;;;;;68.30;46.78;;;;;;;7.56;100.00;101105.44;4991285;28;20173;-47
2023/03/19 02:12:47;;;;;;;67.50;46.17;;;;;;;7.58;100.00;101103.63;5018463;28;20170;-48
2023/03/19 02:15:13;;;;;;;70.53;47.30;;;;;;;7.57;100.00;101101.88;5035030;28;20200;-45
2023/03/19 02:17:40;;;;;;;63.90;44.10;;;;;;;7.56;100.00;101087.66;4980542;28;20211;-46
2023/03/19 02:20:07;;;;;;;62.13;44.72;;;;;;;7.50;100.00;101097.56;5016270;28;20215;-46
2023/03/19 02:22:37;;;;;;;67.72;45.92;;;;;;;7.49;100.00;101093.16;5020486;28;20275;-47
2023/03/19 02:25:29;;;;;;;68.38;46.88;;;;;;;7.46;100.00;101103.91;5028349;28;20199;-46
2023/03/19 02:27:56;;;;;;;65.63;45.60;;;;;;;7.54;100.00;101101.94;5028547;28;20241;-47
2023/03/19 02:30:29;;;;;;;65.53;46.17;;;;;;;7.51;100.00;101086.00;5018842;28;20175;-47
2023/03/19 02:32:57;;;;;;;61.35;44.72;;;;;;;7.51;100.00;101086.00;5037768;28;20238;-47
2023/03/19 02:35:24;;;;;;;66.13;46.58;;;;;;;7.49;100.00;101082.50;5016092;28;20199;-45
2023/03/19 02:41:39;;;;;;;66.40;46.33;;;;;;;7.42;100.00;101087.09;5032924;28;20370;-46
2023/03/19 02:44:06;;;;;;;67.32;47.33;;;;;;;7.44;100.00;101077.28;5005994;28;20197;-46
2023/03/19 02:46:32;;;;;;;63.40;45.80;;;;;;;7.45;100.00;101095.00;5010112;28;20191;-46
2023/03/19 02:48:57;;;;;;;65.50;46.40;;;;;;;7.46;100.00;101095.91;5033844;28;20168;-47
2023/03/19 02:51:23;;;;;;;72.78;46.60;;;;;;;7.49;100.00;101090.50;5031725;28;20183;-47
2023/03/19 02:53:49;;;;;;;67.20;45.53;;;;;;;7.43;100.00;101081.72;5014229;28;20273;-47
2023/03/19 02:56:14;;;;;;;65.20;46.22;;;;;;;7.43;100.00;101089.72;5030246;28;20607;-46
2023/03/19 02:58:40;;;;;;;62.88;45.10;;;;;;;7.35;100.00;101089.00;5016404;28;20630;-46
2023/03/19 03:01:06;;;;;;;70.10;46.38;;;;;;;7.36;100.00;101090.75;5023018;28;20615;-46
2023/03/19 03:03:31;;;;;;;64.95;46.20;;;;;;;7.38;100.00;101088.94;5037079;28;20196;-47
2023/03/19 03:05:57;;;;;;;66.55;46.38;;;;;;;7.45;100.00;101092.34;5027308;28;20180;-45
2023/03/19 03:08:23;;;;;;;66.05;45.97;;;;;;;7.51;100.00;101096.69;5035393;28;20689;-45
2023/03/19 03:10:49;;;;;;;67.88;45.88;;;;;;;7.51;100.00;101091.34;4994476;28;20179;-47
2023/03/19 03:13:15;;;;;;;66.13;46.28;;;;;;;7.51;100.00;101102.00;5027499;28;20179;-47
2023/03/19 03:15:40;;;;;;;63.70;45.80;;;;;;;7.49;100.00;101106.50;5029227;28;20241;-46
2023/03/19 03:18:06;;;;;;;66.88;46.08;;;;;;;7.46;100.00;101103.91;5022034;28;20195;-45
2023/03/19 03:20:32;;;;;;;66.07;45.75;;;;;;;7.46;100.00;101098.56;5014376;28;20230;-46
2023/03/19 03:22:57;;;;;;;66.78;44.67;;;;;;;7.34;100.00;101107.69;5035384;28;20246;-46
2023/03/19 03:25:23;;;;;;;61.15;44.47;;;;;;;7.38;100.00;101104.06;5025068;28;20199;-47
2023/03/19 03:27:48;;;;;;;65.78;45.15;;;;;;;7.35;100.00;101112.13;5036535;28;20168;-46
2023/03/19 03:30:15;;;;;;;60.53;43.72;;;;;;;7.29;100.00;101104.25;5036367;28;20176;-44
2023/03/19 03:32:41;;;;;;;54.67;40.78;;;;;;;7.33;100.00;101104.16;5017453;28;20174;-45
2023/03/19 03:35:08;;;;;;;61.75;43.03;;;;;;;7.27;100.00;101104.25;5021389;28;20250;-46
2023/03/19 03:37:34;;;;;;;60.88;43.10;;;;;;;7.25;100.00;101099.88;5050205;28;20187;-43
2023/03/19 03:39:59;;;;;;;59.95;41.67;;;;;;;7.18;100.00;101105.31;5023991;28;20189;-43
2023/03/19 03:42:25;;;;;;;61.55;43.13;;;;;;;7.19;100.00;101100.88;5011906;28;20545;-45
2023/03/19 03:44:51;;;;;;;58.53;41.90;;;;;;;7.08;100.00;101102.88;5033663;28;20337;-44
2023/03/19 03:47:17;;;;;;;57.95;41.70;;;;;;;7.00;100.00;101109.22;4999633;28;20732;-41
2023/03/19 03:49:42;;;;;;;60.50;42.30;;;;;;;6.79;100.00;101101.63;5048693;28;20178;-42
2023/03/19 03:52:08;;;;;;;62.53;43.85;;;;;;;6.84;100.00;101096.22;5017903;28;20195;-43
2023/03/19 03:54:34;;;;;;;62.33;42.35;;;;;;;6.76;100.00;101099.03;5029963;28;20199;-45
2023/03/19 03:57:00;;;;;;;54.67;40.92;;;;;;;6.91;100.00;101103.19;5030313;28;20200;-42
2023/03/19 03:59:26;;;;;;;63.00;45.03;;;;;;;6.84;100.00;101115.72;5019637;28;20222;-43
2023/03/19 04:01:52;;;;;;;58.40;42.17;;;;;;;6.88;100.00;101111.25;5043986;28;20187;-43
2023/03/19 04:04:19;;;;;;;62.13;44.60;;;;;;;6.78;100.00;101113.22;5033558;28;20191;-42
2023/03/19 04:06:45;;;;;;;67.90;44.95;;;;;;;6.81;100.00;101107.81;5018447;28;20690;-42
2023/03/19 04:09:16;;;;;;;59.90;43.70;;;;;;;6.83;100.00;101106.00;5017113;28;20371;-46
2023/03/19 04:11:41;;;;;;;58.40;42.28;;;;;;;6.77;100.00;101114.97;5050900;28;20619;-42
2023/03/19 04:14:07;;;;;;;63.42;46.33;;;;;;;6.79;100.00;101120.28;5033127;28;20244;-42
2023/03/19 04:16:34;;;;;;;63.58;45.08;;;;;;;6.82;100.00;101122.88;5019837;28;20201;-44
2023/03/19 04:18:59;;;;;;;69.03;45.75;;;;;;;6.80;100.00;101116.72;5046674;28;20183;-41
2023/03/19 04:21:26;;;;;;;67.18;45.97;;;;;;;6.84;100.00;101125.53;5033409;28;20175;-42
2023/03/19 04:23:52;;;;;;;61.83;43.22;;;;;;;6.78;100.00;101122.06;5045546;28;20230;-44
2023/03/19 04:26:17;;;;;;;66.97;45.88;;;;;;;6.78;100.00;101131.84;5013143;28;20168;-42
2023/03/19 04:28:43;;;;;;;59.33;41.85;;;;;;;6.81;100.00;101121.13;5027575;28;20187;-44
2023/03/19 04:31:09;;;;;;;60.00;43.25;;;;;;;6.74;100.00;101109.72;5008155;28;20191;-43
2023/03/19 04:33:40;;;;;;;58.25;42.33;;;;;;;6.70;100.00;101115.13;5026004;28;20223;-42
2023/03/19 04:36:06;;;;;;;58.80;40.95;;;;;;;6.63;100.00;101111.69;5012191;28;20181;-42
2023/03/19 04:38:33;;;;;;;64.57;43.72;;;;;;;6.65;100.00;101117.88;5009643;28;20639;-44
2023/03/19 04:41:00;;;;;;;62.50;43.60;;;;;;;6.63;100.00;101106.38;5010698;28;20219;-43
2023/03/19 04:43:26;;;;;;;62.38;43.17;;;;;;;6.61;100.00;101113.50;4993316;28;20534;-43
2023/03/19 04:45:53;;;;;;;58.35;41.75;;;;;;;6.53;100.00;101108.28;5009672;28;20180;-42
2023/03/19 04:48:20;;;;;;;57.20;41.17;;;;;;;6.49;100.00;101122.56;5021100;28;20266;-43
2023/03/19 04:50:51;;;;;;;55.20;39.15;;;;;;;6.44;100.00;101110.25;5048282;28;20167;-43
2023/03/19 04:53:19;;;;;;;45.67;34.63;;;;;;;6.42;100.00;101112.06;5019713;28;20191;-42
2023/03/19 04:55:46;;;;;;;48.03;36.10;;;;;;;6.37;100.00;101120.97;5013005;28;20730;-46
2023/03/19 04:58:17;;;;;;;46.55;35.85;;;;;;;6.26;100.00;101122.06;5012874;28;20187;-45
2023/03/19 05:00:46;;;;;;;51.75;37.10;;;;;;;5.94;100.00;101120.72;5012376;28;20205;-41
2023/03/19 05:03:16;;;;;;;44.95;35.70;;;;;;;5.98;100.00;101114.50;5011477;28;20253;-47
2023/03/19 05:05:42;;;;;;;50.20;37.45;;;;;;;5.72;100.00;101118.38;5037250;22;20690;-42
2023/03/19 05:08:08;;;;;;;47.13;35.08;;;;;;;5.86;100.00;101122.59;5023611;28;20275;-45
2023/03/19 05:10:36;;;;;;;45.50;35.17;;;;;;;5.89;100.00;101125.25;4995871;28;20171;-42
2023/03/19 05:13:03;;;;;;;47.33;35.75;;;;;;;6.04;100.00;101122.41;5020670;28;20189;-43
2023/03/19 05:15:29;;;;;;;48.47;35.25;;;;;;;6.23;100.00;101112.38;5005620;28;20207;-42
2023/03/19 05:18:02;;;;;;;48.97;36.60;;;;;;;6.17;100.00;101120.44;5014491;28;20180;-41
2023/03/19 05:20:39;;;;;;;53.03;37.22;;;;;;;5.96;100.00;101126.94;5001401;28;20717;-45
2023/03/19 05:23:16;;;;;;;50.05;37.10;;;;;;;6.00;100.00;101125.13;5005104;28;20252;-42
2023/03/19 05:25:49;;;;;;;50.88;36.95;;;;;;;6.16;100.00;101127.50;5003273;28;20176;-40
2023/03/19 05:28:21;;;;;;;47.40;35.45;;;;;;;6.33;100.00;101121.06;5007040;28;20173;-41
2023/03/19 05:30:47;;;;;;;47.42;35.83;;;;;;;6.31;100.00;101122.88;5004387;28;20823;-40
2023/03/19 05:33:23;;;;;;;52.60;37.47;;;;;;;6.40;100.00;101125.38;5013271;28;20177;-42
2023/03/19 05:35:51;;;;;;;49.28;36.30;;;;;;;6.41;100.00;101132.47;5017381;28;20188;-43
2023/03/19 05:38:36;;;;;;;53.22;35.90;;;;;;;6.29;100.00;101125.53;5001686;28;20262;-44
2023/03/19 05:41:07;;;;;;;51.90;37.35;;;;;;;6.33;100.00;101134.38;5001804;28;20209;-42
2023/03/19 05:43:44;;;;;;;49.00;34.47;;;;;;;6.27;100.00;101126.47;5000647;28;20208;-40
2023/03/19 05:46:19;;;;;;;51.55;36.63;;;;;;;6.21;100.00;101122.16;5015008;28;20183;-41
2023/03/19 05:48:44;;;;;;;53.50;36.92;;;;;;;6.17;100.00;101121.31;5002909;28;20275;-43
2023/03/19 05:51:10;;;;;;;49.70;34.75;;;;;;;6.29;100.00;101122.00;5001346;28;20222;-43
2023/03/19 05:53:40;;;;;;;45.25;33.90;;;;;;;6.43;100.00;101121.78;5014462;28;20235;-45
2023/03/19 05:56:25;;;;;;;44.80;33.33;;;;;;;6.57;100.00;101117.13;5004989;28;20676;-40
2023/03/19 05:59:18;;;;;;;45.08;34.15;;;;;;;6.70;100.00;101112.47;4995429;28;20763;-43
2023/03/19 06:01:52;;;;;;;49.45;33.97;;;;;;;6.83;100.00;101118.44;5015304;28;20254;-42
2023/03/19 06:04:18;;;;;;;41.25;30.33;;;;;;;7.04;100.00;101112.72;5017462;28;20589;-41
2023/03/19 06:06:43;;;;;;;48.00;34.72;;;;;;;6.95;100.00;101112.88;5016226;28;20236;-41
2023/03/19 06:09:09;;;;;;;39.28;31.50;;;;;;;6.97;100.00;101117.25;5006096;28;20184;-42
2023/03/19 06:11:39;;;;;;;46.42;33.28;;;;;;;6.85;100.00;101120.16;5000796;28;20181;-41
2023/03/19 06:14:39;;;;;;;41.30;32.15;;;;;;;6.88;100.00;101124.56;5002434;28;20216;-41
2023/03/19 06:17:35;;;;;;;45.47;32.75;;;;;;;6.87;100.00;101130.81;5002073;28;20177;-41
2023/03/19 06:20:04;;;;;;;43.13;32.50;;;;;;;6.87;100.00;101123.69;5000978;28;20216;-41
2023/03/19 06:22:30;;;;;;;41.75;32.63;;;;;;;6.67;100.00;101128.47;5004467;28;20744;-41
2023/03/19 06:24:56;;;;;;;43.47;32.78;;;;;;;6.58;100.00;101127.75;5001024;28;20645;-41
2023/03/19 06:27:22;;;;;;;46.22;33.53;;;;;;;6.63;100.00;101138.31;5004788;28;20212;-42
2023/03/19 06:29:48;;;;;;;42.85;33.83;;;;;;;6.65;100.00;101133.84;5012802;28;20186;-43
2023/03/19 06:32:20;;;;;;;43.35;33.83;;;;;;;6.73;100.00;101126.56;5001417;28;20204;-43
2023/03/19 06:34:47;;;;;;;46.22;33.85;;;;;;;6.64;100.00;101140.06;5008227;28;20214;-42
2023/03/19 06:37:13;;;;;;;44.30;34.45;;;;;;;6.73;100.00;101137.22;4999270;28;20181;-41
2023/03/19 06:39:38;;;;;;;48.17;35.20;;;;;;;6.54;100.00;101139.34;5003885;28;20220;-41
2023/03/19 06:42:04;;;;;;;42.58;32.72;;;;;;;6.62;100.00;101143.66;5006740;28;20614;-44
2023/03/19 06:44:30;;;;;;;49.42;36.38;;;;;;;6.60;100.00;101141.91;4999834;28;20208;-42
2023/03/19 06:46:55;;;;;;;47.38;34.72;;;;;;;6.77;100.00;101138.94;5002414;28;20193;-41
2023/03/19 06:49:22;;;;;;;50.13;34.85;;;;;;;6.85;100.00;101141.47;5005645;28;20279;-41
2023/03/19 06:51:47;;;;;;;46.53;34.65;;;;;;;6.92;100.00;101145.78;5004455;28;20699;-40
2023/03/19 06:54:12;;;;;;;47.80;37.35;;;;;;;6.94;100.00;101149.28;5004678;28;20291;-44
2023/03/19 06:56:38;;;;;;;43.85;34.85;;;;;;;7.05;100.00;101146.44;5002019;28;20177;-42
2023/03/19 06:59:03;;;;;;;43.97;34.33;;;;;;;7.28;100.00;101150.44;4999768;28;20327;-41
2023/03/19 07:01:29;;;;;;;47.55;35.85;;;;;;;7.34;100.00;101153.88;4997471;28;20200;-41
2023/03/19 07:03:56;;;;;;;47.75;36.08;;;;;;;7.63;100.00;101149.72;5004710;28;20248;-46
2023/03/19 07:06:21;;;;;;;48.85;36.55;;;;;;;8.07;100.00;101149.66;5023893;28;20196;-42
2023/03/19 07:08:47;;;;;;;36.00;28.02;;;;;;;8.30;100.00;101146.47;5041602;28;20310;-45
2023/03/19 07:11:13;;;;;;;40.63;31.10;;;;;;;8.57;100.00;101147.63;5039978;28;20634;-40
2023/03/19 07:13:39;;;;;;;34.85;27.27;;;;;;;9.06;100.00;101146.38;5041317;28;20226;-45
2023/03/19 07:16:05;;;;;;;28.52;23.52;;;;;;;9.32;100.00;101136.78;5043172;28;20549;-41
2023/03/19 07:18:30;;;;;;;25.98;22.48;;;;;;;9.49;100.00;101140.72;5043418;28;20172;-42
2023/03/19 07:20:55;;;;;;;23.40;19.88;;;;;;;9.81;100.00;101148.72;5040074;28;20574;-44
2023/03/19 07:23:21;;;;;;;23.42;18.70;;;;;;;10.30;100.00;101144.56;5041518;28;20178;-41
2023/03/19 07:25:47;;;;;;;23.10;18.30;;;;;;;10.43;100.00;101137.88;5040087;28;20188;-43
2023/03/19 07:28:13;;;;;;;17.95;16.02;;;;;;;10.44;100.00;101138.75;5042141;28;20262;-43
2023/03/19 07:30:39;;;;;;;17.13;15.43;;;;;;;10.63;100.00;101129.16;5037562;28;20222;-43
2023/03/19 07:33:06;;;;;;;17.60;15.07;;;;;;;10.45;100.00;101122.63;5039983;28;20202;-41
2023/03/19 07:35:32;;;;;;;16.02;14.25;;;;;;;10.37;100.00;101119.31;5036792;28;20199;-42
2023/03/19 07:37:59;;;;;;;15.48;13.70;;;;;;;10.33;100.00;101124.84;5036987;28;20180;-41
2023/03/19 07:40:25;;;;;;;16.98;15.20;;;;;;;10.69;100.00;101120.94;5038003;28;20211;-42
2023/03/19 07:42:51;;;;;;;16.83;14.55;;;;;;;10.92;100.00;101125.47;5035241;28;20286;-45
2023/03/19 07:45:16;;;;;;;19.10;14.27;;;;;;;11.52;100.00;101128.69;5038391;28;20203;-46
2023/03/19 07:47:42;;;;;;;19.02;14.85;;;;;;;11.40;100.00;101125.59;5042581;28;20266;-44
2023/03/19 07:50:08;;;;;;;17.02;13.90;;;;;;;11.55;100.00;101130.38;5024288;28;20176;-44
2023/03/19 07:52:34;;;;;;;15.65;12.25;;;;;;;11.71;100.00;101131.53;5037718;28;20278;-42
2023/03/19 07:55:00;;;;;;;13.90;12.43;;;;;;;11.54;100.00;101120.56;5041375;28;20641;-44
2023/03/19 07:57:25;;;;;;;13.90;11.35;;;;;;;11.53;100.00;101122.38;5038475;28;20183;-43
2023/03/19 07:59:51;;;;;;;12.30;11.00;;;;;;;11.42;100.00;101121.91;5037253;28;20629;-41
2023/03/19 08:02:17;;;;;;;12.38;10.20;;;;;;;11.53;100.00;101121.53;5036376;28;20245;-44
2023/03/19 08:04:43;;;;;;;11.90;9.27;;;;;;;11.39;100.00;101108.63;5038571;28;20208;-42
2023/03/19 08:07:12;;;;;;;11.27;9.85;;;;;;;11.81;100.00;101118.66;5038872;28;20680;-44
2023/03/19 08:09:38;;;;;;;9.65;8.40;;;;;;;11.92;100.00;101116.47;5035371;28;20274;-41
2023/03/19 08:12:05;;;;;;;8.75;7.78;;;;;;;11.68;100.00;101117.38;5038675;28;20256;-44
2023/03/19 08:14:32;;;;;;;10.35;7.80;;;;;;;11.71;100.00;101120.81;5041765;28;20199;-42
2023/03/19 08:16:57;;;;;;;9.95;8.48;;;;;;;11.80;100.00;101113.34;5038191;28;20191;-46
2023/03/19 08:19:23;;;;;;;10.88;7.78;;;;;;;11.77;100.00;101122.41;5037866;28;20678;-43
2023/03/19 08:21:48;;;;;;;8.30;7.53;;;;;;;11.58;100.00;101124.03;5039233;28;20186;-44
2023/03/19 08:24:14;;;;;;;8.95;8.05;;;;;;;11.45;100.00;101129.84;5037792;28;20303;-46
2023/03/19 08:26:39;;;;;;;9.13;8.18;;;;;;;11.39;100.00;101129.19;5041132;28;20218;-44
2023/03/19 08:29:05;;;;;;;8.40;7.43;;;;;;;11.52;100.00;101138.53;5036135;28;20178;-43
2023/03/19 08:31:31;;;;;;;7.70;6.97;;;;;;;11.42;100.00;101131.78;5041313;28;20176;-45
2023/03/19 08:33:59;;;;;;;8.07;7.28;;;;;;;11.33;100.00;101146.41;5036799;28;20573;-42
2023/03/19 08:36:24;;;;;;;8.45;7.65;;;;;;;11.26;100.00;101142.16;5039160;28;20179;-45
2023/03/19 08:38:53;;;;;;;7.97;7.28;;;;;;;11.14;100.00;101146.19;5039365;28;20310;-42
2023/03/19 08:41:19;;;;;;;9.75;7.53;;;;;;;11.13;100.00;101139.09;5038041;28;20218;-45
2023/03/19 08:43:45;;;;;;;8.02;7.32;;;;;;;11.16;100.00;101148.81;5037000;28;20253;-43
2023/03/19 08:46:11;;;;;;;10.07;8.18;;;;;;;10.99;100.00;101147.59;5037106;28;20274;-44
2023/03/19 08:48:36;;;;;;;8.93;8.02;;;;;;;11.03;100.00;101138.50;5038250;28;20191;-44
2023/03/19 08:51:04;;;;;;;8.80;8.00;;;;;;;11.18;100.00;101152.31;5039434;28;20257;-45
2023/03/19 08:53:31;;;;;;;9.55;8.32;;;;;;;11.16;100.00;101140.78;5036934;28;20186;-42
2023/03/19 08:56:03;;;;;;;9.07;8.23;;;;;;;11.14;100.00;101141.69;5037538;28;20194;-43
2023/03/19 08:58:29;;;;;;;9.93;7.68;;;;;;;11.33;100.00;101147.28;5037791;28;20192;-42
2023/03/19 09:01:03;;;;;;;8.63;7.75;;;;;;;11.41;100.00;101146.13;5022029;28;20202;-43
2023/03/19 09:03:29;;;;;;;8.60;7.80;;;;;;;11.32;100.00;101133.91;5042651;28;20198;-43
2023/03/19 09:06:03;;;;;;;9.32;8.07;;;;;;;11.28;100.00;101137.63;5035308;28;20273;-41
2023/03/19 09:08:29;;;;;;;8.30;7.32;;;;;;;11.35;100.00;101141.88;5038561;28;20346;-42
2023/03/19 09:10:56;;;;;;;10.75;7.75;;;;;;;11.41;100.00;101148.78;5036074;28;20183;-43
2023/03/19 09:13:22;;;;;;;8.45;7.65;;;;;;;11.43;100.00;101158.53;5036941;28;20261;-41
2023/03/19 09:15:48;;;;;;;10.32;8.05;;;;;;;11.53;100.00;101149.22;5039855;28;20194;-43
2023/03/19 09:18:13;;;;;;;8.63;7.72;;;;;;;11.46;100.00;101150.38;5039859;28;20324;-43
2023/03/19 09:20:39;;;;;;;8.95;7.38;;;;;;;11.37;100.00;101156.09;5033247;28;20279;-41
2023/03/19 09:23:05;;;;;;;8.55;7.68;;;;;;;11.46;100.00;101154.88;5022723;28;20261;-47
2023/03/19 09:25:30;;;;;;;9.23;7.65;;;;;;;11.36;100.00;101156.16;5039943;28;20204;-46
2023/03/19 09:27:56;;;;;;;9.35;7.50;;;;;;;11.33;100.00;101155.31;5042504;28;20168;-42
2023/03/19 09:30:21;;;;;;;7.65;6.82;;;;;;;11.38;100.00;101154.28;5036801;28;20195;-43
2023/03/19 09:32:47;;;;;;;9.98;7.65;;;;;;;11.30;100.00;101146.50;5037751;28;20747;-46
2023/03/19 09:35:12;;;;;;;11.10;8.23;;;;;;;11.26;100.00;101156.47;5021354;28;20627;-41
2023/03/19 09:37:38;;;;;;;8.82;7.78;;;;;;;11.30;100.00;101166.19;5036567;28;20331;-45
2023/03/19 09:40:05;;;;;;;8.65;7.88;;;;;;;11.32;100.00;101166.09;5034025;28;20203;-43
2023/03/19 09:43:03;;;;;;;9.18;8.02;;;;;;;11.31;100.00;101167.03;5037030;28;20191;-41
2023/03/19 09:45:28;;;;;;;9.48;7.22;;;;;;;11.49;100.00;101174.41;5024446;28;20570;-42
2023/03/19 09:48:03;;;;;;;8.10;7.20;;;;;;;11.45;100.00;101172.78;5033579;28;20195;-43
2023/03/19 09:50:33;;;;;;;8.82;7.93;;;;;;;11.39;100.00;101169.44;5035123;28;20167;-44
2023/03/19 09:53:21;;;;;;;8.30;7.50;;;;;;;11.52;100.00;101170.75;5035099;28;20557;-42
2023/03/19 09:55:50;;;;;;;7.30;6.57;;;;;;;11.65;100.00;101171.16;5040186;28;20286;-42
2023/03/19 09:58:21;;;;;;;8.73;7.85;;;;;;;11.73;100.00;101175.31;5044313;28;20187;-44
2023/03/19 10:00:50;;;;;;;8.38;7.57;;;;;;;11.90;100.00;101181.91;5035093;28;20200;-43
2023/03/19 10:03:21;;;;;;;9.75;7.20;;;;;;;12.13;100.00;101183.69;5040662;28;20214;-47
2023/03/19 10:06:26;;;;;;;7.90;7.10;;;;;;;12.47;100.00;101175.16;5041115;28;20575;-41
2023/03/19 10:08:57;;;;;;;9.07;7.13;;;;;;;12.86;100.00;101173.59;5044929;28;20178;-44
2023/03/19 10:11:49;;;;;;;8.52;7.03;;;;;;;13.04;97.95;101170.09;5044231;28;20249;-43
2023/03/19 10:14:36;;;;;;;7.47;6.75;;;;;;;13.70;95.50;101174.41;5038651;28;20203;-45
2023/03/19 10:17:05;;;;;;;9.27;7.00;;;;;;;13.97;92.64;101156.97;5025984;28;20195;-42
2023/03/19 10:19:44;;;;;;;7.05;6.38;;;;;;;13.61;90.80;101156.84;5039810;28;20214;-42
2023/03/19 10:22:20;;;;;;;8.27;7.00;;;;;;;13.27;89.95;101155.66;5042260;28;20188;-42
2023/03/19 10:24:47;;;;;;;8.35;7.32;;;;;;;12.75;90.58;101149.84;5043060;28;20270;-41
2023/03/19 10:27:16;;;;;;;7.65;6.78;;;;;;;13.08;91.40;101165.47;5042122;28;20195;-45
2023/03/19 10:29:42;;;;;;;8.25;7.45;;;;;;;12.98;90.79;101154.22;5039538;28;20669;-43
2023/03/19 10:32:25;;;;;;;7.47;6.78;;;;;;;13.02;91.11;101157.66;5042222;28;20199;-43
2023/03/19 10:34:54;;;;;;;7.82;6.35;;;;;;;13.42;91.17;101159.50;5041871;28;20223;-45
2023/03/19 10:37:26;;;;;;;6.53;5.75;;;;;;;13.39;90.26;101157.81;5038958;28;20179;-42
2023/03/19 10:39:56;;;;;;;6.70;6.10;;;;;;;13.06;89.39;101156.59;5040905;28;20213;-42
2023/03/19 10:42:28;;;;;;;6.13;5.53;;;;;;;13.49;89.14;101150.22;5038077;28;20283;-44
2023/03/19 10:45:26;;;;;;;6.65;4.78;;;;;;;13.73;87.91;101153.63;5034904;28;20579;-45
2023/03/19 10:47:54;;;;;;;6.05;4.72;;;;;;;13.88;86.67;101143.91;5027865;28;20215;-47
2023/03/19 10:50:26;;;;;;;5.03;4.53;;;;;;;14.11;85.88;101153.63;5039202;28;20197;-46
2023/03/19 10:53:03;;;;;;;5.60;4.13;;;;;;;14.32;84.68;101138.25;5037242;28;20182;-47
2023/03/19 10:55:30;;;;;;;5.78;4.50;;;;;;;14.30;83.30;101132.06;5048074;28;20215;-48
2023/03/19 10:58:16;;;;;;;5.88;4.70;;;;;;;14.98;82.00;101128.69;5042337;28;20342;-48
2023/03/19 11:00:45;;;;;;;4.55;4.03;;;;;;;15.37;80.61;101136.50;5026105;28;20199;-47
2023/03/19 11:03:35;;;;;;;5.32;4.00;;;;;;;15.48;79.34;101111.63;5040131;28;20211;-46
2023/03/19 11:06:26;;;;;;;4.78;3.83;;;;;;;15.15;77.36;101114.28;5039910;28;20198;-46
2023/03/19 11:09:02;;;;;;;3.80;3.50;;;;;;;15.13;77.43;101110.78;5002253;28;20295;-47
2023/03/19 11:11:33;;;;;;;4.32;3.80;;;;;;;14.98;77.25;101109.81;5038833;28;20755;-48
2023/03/19 11:14:06;;;;;;;5.63;4.28;;;;;;;14.49;77.47;101117.66;5044570;28;20218;-46
2023/03/19 11:16:55;;;;;;;4.07;3.40;;;;;;;14.72;77.77;101127.31;5044676;28;20270;-48
2023/03/19 11:19:33;;;;;;;3.35;3.03;;;;;;;14.62;77.63;101130.47;5048331;28;20180;-47
2023/03/19 11:22:04;;;;;;;5.32;3.17;;;;;;;14.08;78.37;101131.31;5042428;28;20566;-47
2023/03/19 11:24:35;;;;;;;5.38;3.00;;;;;;;14.23;79.09;101138.66;5038237;28;20286;-47
2023/03/19 11:27:02;;;;;;;5.07;3.78;;;;;;;14.24;79.55;101158.44;5038587;28;20215;-45